Time;durP1;ratioP1;P1;durP2;ratioP2;P2;SDS_P1;SDS_P2;PMS_P1;PMS_P2;Temp;Humidity;BMP_temperature;BMP_pressure;BME280_temperature;BME280_humidity;BME280_pressure;Samples;Min_cycle;Max_cycle;Signal;HPM_P1;HPM_P2
2023/10/05 00:01:21;;;;;;;18.38;3.20;;;;;;;;;;5070415;28;20059;-57
2023/10/05 00:03:50;;;;;;;14.45;4.10;;;;;;;;;;5068823;28;20048;-57
2023/10/05 00:06:25;;;;;;;14.15;3.00;;;;;;;;;;5080827;28;20460;-56
2023/10/05 00:08:53;;;;;;;18.38;4.22;;;;;;;;;;5081035;28;20048;-57
2023/10/05 00:11:23;;;;;;;17.15;3.50;;;;;;;;;;5075866;28;20040;-57
2023/10/05 00:13:53;;;;;;;18.65;3.35;;;;;;;;;;5075960;28;20123;-57
2023/10/05 00:16:23;;;;;;;17.73;3.08;;;;;;;;;;5081465;28;20118;-57
2023/10/05 00:18:53;;;;;;;15.63;3.05;;;;;;;;;;5087430;28;20036;-57
2023/10/05 00:21:21;;;;;;;13.65;4.07;;;;;;;;;;5080337;28;20492;-57
2023/10/05 00:23:54;;;;;;;16.38;4.10;;;;;;;;;;5087107;28;20118;-57
2023/10/05 00:26:27;;;;;;;14.00;2.88;;;;;;;;;;5077133;28;20474;-57
2023/10/05 00:31:41;;;;;;;14.55;3.75;;;;;;;;;;5072890;28;20496;-57
2023/10/05 00:36:49;;;;;;;20.17;2.70;;;;;;;;;;5080646;28;20053;-57
2023/10/05 00:39:21;;;;;;;10.65;2.50;;;;;;;;;;5086647;28;20444;-57
2023/10/05 00:42:08;;;;;;;15.65;3.22;;;;;;;;;;5075323;28;20062;-57
2023/10/05 00:44:35;;;;;;;19.90;3.42;;;;;;;;;;5075351;28;20503;-57
2023/10/05 00:47:05;;;;;;;14.52;3.10;;;;;;;;;;5079715;28;20044;-57
2023/10/05 00:52:19;;;;;;;24.25;3.45;;;;;;;;;;5077613;28;20040;-57
2023/10/05 00:54:51;;;;;;;13.98;2.90;;;;;;;;;;5074798;28;20395;-56
2023/10/05 00:57:23;;;;;;;13.60;2.78;;;;;;;;;;5077137;28;20052;-57
2023/10/05 01:03:03;;;;;;;13.68;2.67;;;;;;;;;;5073786;28;20056;-57
2023/10/05 01:05:34;;;;;;;12.48;2.72;;;;;;;;;;5080048;28;20055;-57
2023/10/05 01:08:04;;;;;;;15.13;2.97;;;;;;;;;;5076264;28;20172;-57
2023/10/05 01:10:48;;;;;;;14.68;3.13;;;;;;;;;;5082227;28;20068;-57
2023/10/05 01:13:16;;;;;;;;;;;;;;;;;;5067240;28;20535;-57
2023/10/05 01:15:42;;;;;;;16.77;2.78;;;;;;;;;;5078021;28;20023;-57
2023/10/05 01:18:08;;;;;;;21.52;3.03;;;;;;;;;;5071502;28;20504;-57
2023/10/05 01:20:36;;;;;;;16.20;3.33;;;;;;;;;;5065545;28;20087;-57
2023/10/05 01:23:04;;;;;;;13.70;3.47;;;;;;;;;;5074777;28;20396;-57
2023/10/05 01:25:31;;;;;;;12.68;2.47;;;;;;;;;;5082295;28;20072;-57
2023/10/05 01:27:58;;;;;;;14.98;3.22;;;;;;;;;;5071054;28;20053;-57
2023/10/05 01:30:24;;;;;;;15.00;2.83;;;;;;;;;;5073716;28;20037;-57
2023/10/05 01:32:50;;;;;;;11.90;3.42;;;;;;;;;;5069606;28;20040;-57
2023/10/05 01:35:22;;;;;;;13.23;2.90;;;;;;;;;;5071015;28;20085;-57
2023/10/05 01:37:52;;;;;;;15.05;3.42;;;;;;;;;;5080937;28;20123;-57
2023/10/05 01:42:47;;;;;;;15.60;2.75;;;;;;;;;;5076972;28;20044;-57
2023/10/05 01:45:17;;;;;;;14.43;3.45;;;;;;;;;;5069553;28;20516;-56
2023/10/05 01:47:44;;;;;;;14.63;2.70;;;;;;;;;;5060423;28;20127;-57
2023/10/05 01:50:18;;;;;;;14.27;2.65;;;;;;;;;;5071871;28;20104;-57
2023/10/05 01:52:46;;;;;;;17.45;4.32;;;;;;;;;;5071701;28;20049;-57
2023/10/05 01:55:18;;;;;;;13.82;3.03;;;;;;;;;;5072804;28;20412;-57
2023/10/05 01:57:44;;;;;;;14.68;3.58;;;;;;;;;;5077748;28;20066;-57
2023/10/05 02:00:14;;;;;;;15.40;3.72;;;;;;;;;;5069701;28;20407;-56
2023/10/05 02:02:42;;;;;;;16.92;3.50;;;;;;;;;;5065836;28;20037;-57
2023/10/05 02:05:10;;;;;;;13.52;2.85;;;;;;;;;;5067757;28;20223;-57
2023/10/05 02:07:38;;;;;;;15.05;3.47;;;;;;;;;;5070471;28;20107;-57
2023/10/05 02:10:09;;;;;;;14.32;3.42;;;;;;;;;;5075675;28;20512;-57
2023/10/05 02:12:36;;;;;;;18.58;4.05;;;;;;;;;;5071190;28;20492;-57
2023/10/05 02:15:13;;;;;;;17.00;3.85;;;;;;;;;;5066810;28;20479;-56
2023/10/05 02:17:42;;;;;;;16.05;3.25;;;;;;;;;;5076036;28;20101;-57
2023/10/05 02:20:16;;;;;;;11.07;2.53;;;;;;;;;;5071636;28;20050;-57
2023/10/05 02:22:47;;;;;;;20.20;4.03;;;;;;;;;;5075885;28;20066;-57
2023/10/05 02:25:18;;;;;;;14.95;3.45;;;;;;;;;;5073478;28;20122;-57
2023/10/05 02:27:46;;;;;;;18.42;3.78;;;;;;;;;;5071045;28;20056;-57
2023/10/05 02:30:14;;;;;;;15.98;3.03;;;;;;;;;;5071402;28;20131;-57
2023/10/05 02:32:44;;;;;;;14.35;3.58;;;;;;;;;;5074792;28;20041;-57
2023/10/05 02:35:24;;;;;;;16.60;3.50;;;;;;;;;;5069664;28;20077;-57
2023/10/05 02:37:52;;;;;;;23.83;4.95;;;;;;;;;;5073112;28;20466;-56
2023/10/05 02:40:37;;;;;;;21.42;4.75;;;;;;;;;;5069001;28;20056;-57
2023/10/05 02:43:07;;;;;;;14.35;3.47;;;;;;;;;;5070408;28;20029;-57
2023/10/05 02:45:37;;;;;;;15.85;4.13;;;;;;;;;;5075880;28;20165;-57
2023/10/05 02:48:06;;;;;;;20.80;3.78;;;;;;;;;;5071418;28;20648;-57
2023/10/05 02:50:39;;;;;;;16.08;3.67;;;;;;;;;;5076096;28;20045;-57
2023/10/05 02:53:06;;;;;;;13.85;3.85;;;;;;;;;;5074099;28;20083;-57
2023/10/05 02:55:36;;;;;;;14.65;3.42;;;;;;;;;;5072824;28;20049;-57
2023/10/05 02:58:05;;;;;;;21.25;4.28;;;;;;;;;;5072817;28;20044;-57
2023/10/05 03:00:35;;;;;;;25.40;4.20;;;;;;;;;;5073869;28;20060;-57
2023/10/05 03:03:05;;;;;;;17.67;3.78;;;;;;;;;;5069534;28;20356;-57
2023/10/05 03:05:35;;;;;;;17.48;3.58;;;;;;;;;;5074320;28;20051;-57
2023/10/05 03:08:01;;;;;;;19.67;3.85;;;;;;;;;;5070754;28;20077;-57
2023/10/05 03:10:28;;;;;;;15.50;3.20;;;;;;;;;;5072771;28;20044;-57
2023/10/05 03:12:54;;;;;;;17.90;3.63;;;;;;;;;;5079634;28;20123;-57
2023/10/05 03:15:24;;;;;;;22.55;4.22;;;;;;;;;;5070015;28;20113;-56
2023/10/05 03:17:56;;;;;;;17.30;3.78;;;;;;;;;;5060531;28;20078;-57
2023/10/05 03:20:23;;;;;;;20.73;4.18;;;;;;;;;;5073402;28;20373;-57
2023/10/05 03:22:49;;;;;;;17.92;3.72;;;;;;;;;;5079007;28;20041;-57
2023/10/05 03:25:16;;;;;;;15.95;3.90;;;;;;;;;;5066416;28;20076;-57
2023/10/05 03:27:45;;;;;;;27.95;5.78;;;;;;;;;;5070367;28;20056;-57
2023/10/05 03:30:14;;;;;;;22.15;3.83;;;;;;;;;;5075943;28;20048;-57
2023/10/05 03:32:42;;;;;;;19.02;4.25;;;;;;;;;;5070416;28;20059;-57
2023/10/05 03:35:09;;;;;;;21.05;3.95;;;;;;;;;;5075277;28;20074;-56
2023/10/05 03:37:39;;;;;;;19.92;4.10;;;;;;;;;;5074639;28;20047;-57
2023/10/05 03:42:32;;;;;;;13.18;2.88;;;;;;;;;;5071773;28;20044;-57
2023/10/05 03:45:04;;;;;;;16.15;3.50;;;;;;;;;;5063032;28;20119;-56
2023/10/05 03:47:40;;;;;;;16.08;3.35;;;;;;;;;;5078212;28;20063;-57
2023/10/05 03:50:06;;;;;;;18.02;3.60;;;;;;;;;;5068134;28;20037;-57
2023/10/05 03:52:32;;;;;;;19.15;3.55;;;;;;;;;;5072576;28;20044;-57
2023/10/05 03:55:09;;;;;;;15.40;3.70;;;;;;;;;;5080048;28;20595;-57
2023/10/05 03:57:36;;;;;;;16.85;3.63;;;;;;;;;;5071169;28;20496;-57
2023/10/05 04:00:31;;;;;;;23.80;4.03;;;;;;;;;;5075121;28;20123;-57
2023/10/05 04:02:53;;;;;;;22.80;3.53;;;;;;;;;;5075084;28;20125;-57
2023/10/05 04:05:20;;;;;;;14.68;3.58;;;;;;;;;;5073188;28;20036;-57
2023/10/05 04:07:48;;;;;;;20.00;3.78;;;;;;;;;;5075095;28;20593;-56
2023/10/05 04:10:15;;;;;;;14.25;3.10;;;;;;;;;;5080358;28;20124;-57
2023/10/05 04:12:42;;;;;;;21.15;3.40;;;;;;;;;;5068873;28;20049;-57
2023/10/05 04:15:11;;;;;;;29.48;4.72;;;;;;;;;;5071549;28;20052;-57
2023/10/05 04:17:37;;;;;;;15.75;3.80;;;;;;;;;;5072219;28;20721;-56
2023/10/05 04:20:10;;;;;;;21.30;3.35;;;;;;;;;;5076686;28;20135;-57
2023/10/05 04:22:38;;;;;;;21.58;4.43;;;;;;;;;;5077243;28;20039;-57
2023/10/05 04:25:05;;;;;;;18.17;3.53;;;;;;;;;;5080523;28;20056;-57
2023/10/05 04:27:31;;;;;;;27.00;4.47;;;;;;;;;;5072971;28;20056;-57
2023/10/05 04:29:58;;;;;;;25.45;4.40;;;;;;;;;;5067508;28;20079;-57
2023/10/05 04:32:25;;;;;;;26.60;4.13;;;;;;;;;;5076113;28;20040;-57
2023/10/05 04:34:51;;;;;;;19.33;3.72;;;;;;;;;;5070212;28;20040;-57
2023/10/05 04:37:17;;;;;;;14.65;3.20;;;;;;;;;;5074044;28;20044;-57
2023/10/05 04:39:44;;;;;;;21.95;4.45;;;;;;;;;;5071667;28;20127;-57
2023/10/05 04:42:15;;;;;;;18.90;4.20;;;;;;;;;;5069546;28;20403;-57
2023/10/05 04:44:41;;;;;;;22.75;4.40;;;;;;;;;;5073235;28;20131;-57
2023/10/05 04:47:10;;;;;;;34.35;4.30;;;;;;;;;;5067839;28;20055;-57
2023/10/05 04:49:37;;;;;;;21.63;4.00;;;;;;;;;;5068210;28;20048;-57
2023/10/05 04:52:06;;;;;;;23.15;3.63;;;;;;;;;;5070708;28;20079;-57
2023/10/05 04:54:38;;;;;;;18.63;3.58;;;;;;;;;;5078112;28;20058;-57
2023/10/05 04:57:12;;;;;;;23.80;4.45;;;;;;;;;;5067735;28;20044;-57
2023/10/05 04:59:48;;;;;;;21.23;3.65;;;;;;;;;;5068681;28;20116;-57
2023/10/05 05:02:21;;;;;;;20.77;4.05;;;;;;;;;;5070800;28;20059;-57
2023/10/05 05:07:19;;;;;;;18.92;4.28;;;;;;;;;;5073418;28;20044;-57
2023/10/05 05:09:45;;;;;;;21.23;4.28;;;;;;;;;;5071243;28;20047;-57
2023/10/05 05:12:16;;;;;;;22.20;4.15;;;;;;;;;;5066423;28;20041;-57
2023/10/05 05:14:42;;;;;;;25.00;4.18;;;;;;;;;;5067523;28;20067;-57
2023/10/05 05:17:12;;;;;;;18.60;4.15;;;;;;;;;;5072119;28;20059;-57
2023/10/05 05:19:41;;;;;;;21.85;4.47;;;;;;;;;;5072271;28;20497;-57
2023/10/05 05:22:08;;;;;;;17.75;3.70;;;;;;;;;;5071549;28;20127;-58
2023/10/05 05:24:35;;;;;;;19.48;3.90;;;;;;;;;;5070833;28;20119;-57
2023/10/05 05:27:04;;;;;;;19.02;4.22;;;;;;;;;;5069067;28;20040;-57
2023/10/05 05:29:34;;;;;;;20.70;4.25;;;;;;;;;;5072325;28;20097;-57
2023/10/05 05:32:44;;;;;;;20.10;4.47;;;;;;;;;;5071147;28;20056;-57
2023/10/05 05:34:50;;;;;;;17.52;4.30;;;;;;;;;;5066602;28;20098;-57
2023/10/05 05:39:46;;;;;;;18.88;3.67;;;;;;;;;;5066672;28;20099;-57
2023/10/05 05:42:15;;;;;;;15.13;3.30;;;;;;;;;;5047863;28;20488;-57
2023/10/05 05:44:42;;;;;;;21.33;4.47;;;;;;;;;;5067027;28;20036;-57
2023/10/05 05:47:14;;;;;;;19.48;4.20;;;;;;;;;;5067324;28;20119;-57
2023/10/05 05:49:46;;;;;;;18.02;5.07;;;;;;;;;;5066841;28;20052;-57
2023/10/05 05:52:13;;;;;;;21.85;4.22;;;;;;;;;;5049483;28;20036;-57
2023/10/05 05:54:46;;;;;;;21.13;3.92;;;;;;;;;;5068554;28;20035;-57
2023/10/05 05:57:13;;;;;;;20.60;4.38;;;;;;;;;;5068175;28;20050;-57
2023/10/05 05:59:39;;;;;;;19.80;4.20;;;;;;;;;;5066528;28;20044;-57
2023/10/05 06:02:09;;;;;;;12.45;3.08;;;;;;;;;;5067167;28;20048;-57
2023/10/05 06:04:35;;;;;;;20.30;4.15;;;;;;;;;;5067523;28;20032;-57
2023/10/05 06:07:11;;;;;;;18.15;3.53;;;;;;;;;;5071452;28;20056;-57
2023/10/05 06:09:42;;;;;;;14.02;3.35;;;;;;;;;;5070827;28;20040;-57
2023/10/05 06:12:10;;;;;;;24.95;4.45;;;;;;;;;;5072009;28;20052;-57
2023/10/05 06:14:37;;;;;;;16.83;3.30;;;;;;;;;;5071338;28;20041;-57
2023/10/05 06:17:03;;;;;;;19.08;3.30;;;;;;;;;;5071093;28;20040;-57
2023/10/05 06:19:29;;;;;;;20.25;3.67;;;;;;;;;;5072015;28;20441;-56
2023/10/05 06:21:56;;;;;;;16.95;3.20;;;;;;;;;;5069047;28;20479;-57
2023/10/05 06:24:23;;;;;;;17.33;3.67;;;;;;;;;;5065882;28;20040;-57
2023/10/05 06:26:50;;;;;;;18.48;4.38;;;;;;;;;;5064154;28;20036;-57
2023/10/05 06:29:16;;;;;;;20.02;4.03;;;;;;;;;;5069822;28;20052;-57
2023/10/05 06:31:43;;;;;;;18.23;3.35;;;;;;;;;;5071900;28;20190;-66
2023/10/05 06:34:12;;;;;;;19.15;3.25;;;;;;;;;;5068129;28;20037;-57
2023/10/05 06:36:38;;;;;;;20.13;3.72;;;;;;;;;;5062025;28;20052;-57
2023/10/05 06:39:14;;;;;;;15.70;3.78;;;;;;;;;;5048085;28;20105;-57
2023/10/05 06:41:41;;;;;;;14.25;3.88;;;;;;;;;;5062273;28;20052;-57
2023/10/05 06:44:11;;;;;;;13.35;2.70;;;;;;;;;;5042735;28;20139;-57
2023/10/05 06:46:42;;;;;;;18.95;3.20;;;;;;;;;;5060722;28;20504;-57
2023/10/05 06:49:09;;;;;;;15.02;4.07;;;;;;;;;;5062491;28;20041;-57
2023/10/05 06:51:43;;;;;;;19.85;3.97;;;;;;;;;;5062296;28;20396;-58
2023/10/05 06:54:09;;;;;;;15.73;3.45;;;;;;;;;;5062744;28;20063;-57
2023/10/05 06:56:35;;;;;;;17.33;4.05;;;;;;;;;;5061744;28;20509;-57
2023/10/05 06:59:04;;;;;;;14.77;3.65;;;;;;;;;;5062262;28;20048;-57
2023/10/05 07:01:34;;;;;;;22.55;5.20;;;;;;;;;;5060632;28;20448;-57
2023/10/05 07:04:01;;;;;;;15.20;3.55;;;;;;;;;;5058792;28;20116;-57
2023/10/05 07:06:32;;;;;;;14.27;2.65;;;;;;;;;;5060552;28;20364;-57
2023/10/05 07:08:59;;;;;;;20.55;5.05;;;;;;;;;;5062493;28;20036;-57
2023/10/05 07:11:25;;;;;;;16.30;3.40;;;;;;;;;;5060140;28;20068;-57
2023/10/05 07:13:52;;;;;;;18.15;3.45;;;;;;;;;;5065618;28;20369;-56
2023/10/05 07:16:18;;;;;;;14.70;3.75;;;;;;;;;;5060265;28;20392;-57
2023/10/05 07:18:45;;;;;;;14.13;3.53;;;;;;;;;;5061382;28;20040;-57
2023/10/05 07:21:11;;;;;;;13.80;4.38;;;;;;;;;;5060920;28;20574;-57
2023/10/05 07:23:38;;;;;;;15.65;3.20;;;;;;;;;;5062584;28;20392;-57
2023/10/05 07:26:05;;;;;;;14.27;3.33;;;;;;;;;;5060565;28;20395;-57
2023/10/05 07:28:33;;;;;;;22.00;3.53;;;;;;;;;;5061223;28;20065;-57
2023/10/05 07:30:59;;;;;;;17.25;3.22;;;;;;;;;;5059278;28;20471;-57
2023/10/05 07:33:26;;;;;;;19.63;3.38;;;;;;;;;;5061863;28;20097;-57
2023/10/05 07:35:53;;;;;;;16.77;4.22;;;;;;;;;;5061044;28;20091;-57
2023/10/05 07:38:20;;;;;;;21.10;4.45;;;;;;;;;;5061186;28;20052;-57
2023/10/05 07:40:47;;;;;;;25.67;4.38;;;;;;;;;;5062329;28;20519;-56
2023/10/05 07:43:13;;;;;;;19.77;3.75;;;;;;;;;;5062540;28;20061;-57
2023/10/05 07:45:39;;;;;;;12.07;3.67;;;;;;;;;;5060863;28;20040;-56
2023/10/05 07:48:06;;;;;;;14.82;3.97;;;;;;;;;;5063234;28;20098;-56
2023/10/05 07:50:34;;;;;;;16.67;4.35;;;;;;;;;;5062082;28;20116;-57
2023/10/05 07:53:00;;;;;;;17.17;3.53;;;;;;;;;;5060611;28;20457;-57
2023/10/05 07:55:26;;;;;;;23.70;4.85;;;;;;;;;;5062059;28;20045;-57
2023/10/05 07:57:53;;;;;;;16.33;3.75;;;;;;;;;;5062759;28;20504;-57
2023/10/05 08:00:20;;;;;;;16.17;4.75;;;;;;;;;;5061438;28;20067;-57
2023/10/05 08:02:46;;;;;;;23.08;4.05;;;;;;;;;;5063480;28;20147;-57
2023/10/05 08:05:13;;;;;;;17.65;3.67;;;;;;;;;;5060343;28;20045;-57
2023/10/05 08:07:39;;;;;;;12.68;3.00;;;;;;;;;;5061780;28;20369;-57
2023/10/05 08:10:06;;;;;;;12.20;2.92;;;;;;;;;;5061172;28;20125;-57
2023/10/05 08:12:33;;;;;;;18.45;3.90;;;;;;;;;;5061482;28;20037;-57
2023/10/05 08:14:59;;;;;;;20.08;3.65;;;;;;;;;;5061074;28;20045;-57
2023/10/05 08:17:27;;;;;;;11.93;2.80;;;;;;;;;;5061076;28;20488;-57
2023/10/05 08:19:53;;;;;;;9.95;2.65;;;;;;;;;;5060930;28;20040;-57
2023/10/05 08:22:20;;;;;;;15.43;3.50;;;;;;;;;;5062510;28;20145;-57
2023/10/05 08:24:47;;;;;;;11.38;3.25;;;;;;;;;;5062012;28;20048;-57
2023/10/05 08:27:14;;;;;;;14.32;4.13;;;;;;;;;;5062876;28;20079;-62
2023/10/05 08:29:42;;;;;;;16.70;3.03;;;;;;;;;;5066158;28;20060;-57
2023/10/05 08:32:13;;;;;;;17.98;3.70;;;;;;;;;;5063460;28;20075;-57
2023/10/05 08:34:41;;;;;;;13.98;3.20;;;;;;;;;;5063417;28;20403;-57
2023/10/05 08:37:08;;;;;;;15.95;3.22;;;;;;;;;;5064153;28;20095;-57
2023/10/05 08:39:37;;;;;;;11.05;2.60;;;;;;;;;;5064785;28;20559;-57
2023/10/05 08:42:07;;;;;;;14.23;3.25;;;;;;;;;;5063458;28;20790;-57
2023/10/05 08:44:38;;;;;;;15.00;3.42;;;;;;;;;;5064876;28;20040;-57
2023/10/05 08:47:05;;;;;;;11.65;3.28;;;;;;;;;;5063100;28;20040;-57
2023/10/05 08:49:36;;;;;;;14.20;3.05;;;;;;;;;;5064615;28;20574;-57
2023/10/05 08:52:12;;;;;;;16.50;3.25;;;;;;;;;;5064566;28;20040;-57
2023/10/05 08:54:38;;;;;;;12.48;2.63;;;;;;;;;;5065225;28;20044;-56
2023/10/05 08:57:11;;;;;;;15.82;3.22;;;;;;;;;;5063813;28;20044;-57
2023/10/05 08:59:45;;;;;;;11.85;2.75;;;;;;;;;;5063729;28;20051;-57
2023/10/05 09:02:11;;;;;;;16.65;3.17;;;;;;;;;;5061762;28;20055;-57
2023/10/05 09:04:44;;;;;;;16.35;3.00;;;;;;;;;;5064260;28;20104;-57
2023/10/05 09:07:37;;;;;;;19.80;4.82;;;;;;;;;;5064029;28;20054;-57
2023/10/05 09:10:08;;;;;;;14.23;3.85;;;;;;;;;;5063107;28;20045;-56
2023/10/05 09:12:35;;;;;;;13.55;3.38;;;;;;;;;;5062402;28;20043;-57
2023/10/05 09:15:05;;;;;;;9.80;3.22;;;;;;;;;;5063710;28;20052;-56
2023/10/05 09:17:34;;;;;;;14.93;3.70;;;;;;;;;;5064028;28;20056;-57
2023/10/05 09:20:18;;;;;;;15.93;4.40;;;;;;;;;;5063981;28;20068;-57
2023/10/05 09:22:49;;;;;;;18.73;4.68;;;;;;;;;;5066685;28;20079;-57
2023/10/05 09:25:17;;;;;;;16.17;3.28;;;;;;;;;;5071678;28;20044;-57
2023/10/05 09:27:50;;;;;;;16.05;4.07;;;;;;;;;;5071603;28;20053;-56
2023/10/05 09:30:21;;;;;;;17.73;3.30;;;;;;;;;;5071781;28;20199;-57
2023/10/05 09:32:48;;;;;;;15.25;3.72;;;;;;;;;;5072182;28;20063;-58
2023/10/05 09:35:27;;;;;;;14.48;3.58;;;;;;;;;;5073069;28;20044;-57
2023/10/05 09:37:58;;;;;;;15.75;3.05;;;;;;;;;;5070221;28;20041;-56
2023/10/05 09:40:26;;;;;;;16.35;3.25;;;;;;;;;;5072122;28;20131;-58
2023/10/05 09:42:55;;;;;;;19.38;4.07;;;;;;;;;;5070436;28;20488;-58
2023/10/05 09:45:23;;;;;;;16.02;4.18;;;;;;;;;;5070826;28;20683;-58
2023/10/05 09:47:51;;;;;;;12.85;3.50;;;;;;;;;;5072731;28;20040;-62
2023/10/05 09:50:21;;;;;;;11.93;2.90;;;;;;;;;;5072691;28;20048;-58
2023/10/05 09:52:48;;;;;;;18.65;4.05;;;;;;;;;;5070558;28;20041;-59
2023/10/05 09:55:19;;;;;;;19.02;4.05;;;;;;;;;;5069081;28;20439;-58
2023/10/05 09:57:56;;;;;;;15.27;3.05;;;;;;;;;;5070492;28;20469;-57
2023/10/05 10:03:04;;;;;;;19.83;3.38;;;;;;;;;;5070202;28;20041;-58
2023/10/05 10:05:36;;;;;;;13.10;3.35;;;;;;;;;;5070833;28;20113;-58
2023/10/05 10:08:21;;;;;;;15.00;3.47;;;;;;;;;;5072651;28;20456;-58
2023/10/05 10:10:51;;;;;;;15.45;3.15;;;;;;;;;;5067134;28;20036;-58
2023/10/05 10:13:21;;;;;;;15.32;3.45;;;;;;;;;;5070121;28;20060;-57
2023/10/05 10:15:53;;;;;;;12.48;3.10;;;;;;;;;;5069711;28;20410;-58
2023/10/05 10:18:30;;;;;;;20.40;4.28;;;;;;;;;;5072265;28;20114;-58
2023/10/05 10:20:57;;;;;;;10.60;2.85;;;;;;;;;;5063307;28;20125;-59
2023/10/05 10:23:26;;;;;;;13.85;3.47;;;;;;;;;;5061769;28;20049;-58
2023/10/05 10:26:05;;;;;;;12.77;3.13;;;;;;;;;;5063175;28;20052;-59
2023/10/05 10:31:14;;;;;;;8.25;2.30;;;;;;;;;;5060813;28;20084;-59
2023/10/05 10:33:41;;;;;;;15.80;2.90;;;;;;;;;;5062406;28;20064;-59
2023/10/05 10:36:22;;;;;;;15.25;3.30;;;;;;;;;;5062079;28;20068;-59
2023/10/05 10:38:51;;;;;;;11.70;2.42;;;;;;;;;;5061395;28;20123;-59
2023/10/05 10:41:20;;;;;;;12.02;3.15;;;;;;;;;;5061334;28;20685;-59
2023/10/05 10:43:52;;;;;;;8.93;2.08;;;;;;;;;;5062787;28;20139;-59
2023/10/05 10:46:30;;;;;;;8.13;2.35;;;;;;;;;;5062200;28;20042;-59
2023/10/05 10:48:58;;;;;;;14.38;2.65;;;;;;;;;;5061381;28;20052;-59
2023/10/05 10:51:31;;;;;;;13.90;3.17;;;;;;;;;;5062828;28;20413;-59
2023/10/05 10:53:59;;;;;;;13.18;3.00;;;;;;;;;;5063692;28;20469;-58
2023/10/05 10:56:28;;;;;;;17.52;3.35;;;;;;;;;;5060899;28;20097;-59
2023/10/05 10:59:09;;;;;;;10.18;2.63;;;;;;;;;;5062022;28;20060;-59
2023/10/05 11:01:43;;;;;;;11.40;2.63;;;;;;;;;;5057964;28;20060;-59
2023/10/05 11:04:31;;;;;;;15.07;3.35;;;;;;;;;;5061835;28;20431;-59
2023/10/05 11:07:07;;;;;;;14.77;2.75;;;;;;;;;;5061871;28;20127;-59
2023/10/05 11:09:35;;;;;;;11.77;3.58;;;;;;;;;;5061221;28;20063;-58
2023/10/05 11:12:11;;;;;;;10.70;2.58;;;;;;;;;;5061889;28;20464;-59
2023/10/05 11:14:44;;;;;;;14.40;2.97;;;;;;;;;;5058341;28;20041;-58
2023/10/05 11:17:30;;;;;;;12.80;2.85;;;;;;;;;;5060280;28;20045;-59
2023/10/05 11:19:58;;;;;;;11.15;3.00;;;;;;;;;;5070740;28;20083;-58
2023/10/05 11:22:24;;;;;;;12.18;2.50;;;;;;;;;;5066269;28;20106;-59
2023/10/05 11:25:02;;;;;;;8.13;2.47;;;;;;;;;;5068343;28;20040;-59
2023/10/05 11:27:36;;;;;;;18.70;3.33;;;;;;;;;;5069376;28;20079;-59
2023/10/05 11:30:05;;;;;;;13.68;3.65;;;;;;;;;;5070196;28;20400;-59
2023/10/05 11:32:31;;;;;;;15.73;2.60;;;;;;;;;;5069374;28;20455;-59
2023/10/05 11:35:04;;;;;;;12.07;2.67;;;;;;;;;;5070802;28;20094;-58
2023/10/05 11:37:32;;;;;;;9.70;2.88;;;;;;;;;;5069341;28;20360;-59
2023/10/05 11:40:01;;;;;;;12.88;2.80;;;;;;;;;;5069344;28;20059;-59
2023/10/05 11:42:41;;;;;;;15.98;3.40;;;;;;;;;;5070329;28;20097;-59
2023/10/05 11:45:16;;;;;;;14.00;3.35;;;;;;;;;;5068457;28;20396;-59
2023/10/05 11:47:48;;;;;;;16.95;3.15;;;;;;;;;;5070407;28;20041;-59
2023/10/05 11:52:59;;;;;;;14.20;3.35;;;;;;;;;;5068356;28;20514;-59
2023/10/05 11:55:26;;;;;;;13.25;2.88;;;;;;;;;;5069028;28;20360;-59
2023/10/05 11:57:52;;;;;;;8.98;2.78;;;;;;;;;;5069531;28;20127;-59
2023/10/05 12:00:18;;;;;;;10.32;3.00;;;;;;;;;;5067518;28;20041;-59
2023/10/05 12:02:45;;;;;;;11.45;3.25;;;;;;;;;;5068649;28;20040;-59
2023/10/05 12:05:12;;;;;;;8.23;2.35;;;;;;;;;;5069637;28;20041;-59
2023/10/05 12:07:45;;;;;;;8.60;2.40;;;;;;;;;;5068859;28;20412;-59
2023/10/05 12:10:13;;;;;;;10.82;2.35;;;;;;;;;;5069740;28;20177;-59
2023/10/05 12:12:41;;;;;;;13.98;2.78;;;;;;;;;;5069911;28;20078;-59
2023/10/05 12:15:17;;;;;;;12.75;2.97;;;;;;;;;;5069296;28;20036;-59
2023/10/05 12:17:46;;;;;;;14.43;3.05;;;;;;;;;;5069594;28;20437;-59
2023/10/05 12:20:14;;;;;;;17.00;3.42;;;;;;;;;;5068392;28;20040;-58
2023/10/05 12:22:42;;;;;;;11.13;3.00;;;;;;;;;;5069273;28;20044;-59
2023/10/05 12:25:09;;;;;;;12.52;3.08;;;;;;;;;;5067505;28;20052;-59
2023/10/05 12:27:36;;;;;;;16.33;2.97;;;;;;;;;;5068305;28;20135;-59
2023/10/05 12:30:11;;;;;;;14.88;3.72;;;;;;;;;;5070223;28;20044;-59
2023/10/05 12:32:38;;;;;;;17.55;4.18;;;;;;;;;;5070162;28;20036;-59
2023/10/05 12:35:06;;;;;;;11.55;2.65;;;;;;;;;;5069473;28;20040;-59
2023/10/05 12:37:33;;;;;;;11.10;2.72;;;;;;;;;;5067092;28;20107;-59
2023/10/05 12:40:17;;;;;;;12.88;3.97;;;;;;;;;;5069969;28;20046;-59
2023/10/05 12:42:44;;;;;;;12.57;2.80;;;;;;;;;;5069999;28;20051;-59
2023/10/05 12:45:11;;;;;;;15.77;4.47;;;;;;;;;;5070106;28;20159;-59
2023/10/05 12:47:37;;;;;;;13.27;3.33;;;;;;;;;;5068343;28;20048;-59
2023/10/05 12:50:04;;;;;;;14.30;3.17;;;;;;;;;;5069127;28;20075;-59
2023/10/05 12:52:30;;;;;;;13.60;3.22;;;;;;;;;;5069271;28;20075;-59
2023/10/05 12:54:56;;;;;;;11.35;2.83;;;;;;;;;;5068918;28;20525;-59
2023/10/05 12:57:22;;;;;;;10.32;3.00;;;;;;;;;;5069236;28;20124;-59
2023/10/05 12:59:49;;;;;;;11.23;2.70;;;;;;;;;;5069890;28;20066;-59
2023/10/05 13:02:15;;;;;;;11.70;2.42;;;;;;;;;;5067979;28;20052;-59
2023/10/05 13:04:42;;;;;;;14.38;2.70;;;;;;;;;;5069762;28;20076;-59
2023/10/05 13:07:08;;;;;;;17.17;3.05;;;;;;;;;;5067852;28;20102;-59
2023/10/05 13:09:35;;;;;;;10.38;2.70;;;;;;;;;;5067758;28;20190;-59
2023/10/05 13:12:08;;;;;;;10.88;2.72;;;;;;;;;;5069417;28;20484;-59
2023/10/05 13:14:34;;;;;;;11.48;2.83;;;;;;;;;;5072232;28;20047;-59
2023/10/05 13:17:00;;;;;;;10.70;2.90;;;;;;;;;;5071651;28;20147;-59
2023/10/05 13:19:27;;;;;;;11.98;2.58;;;;;;;;;;5072654;28;20097;-59
2023/10/05 13:21:53;;;;;;;9.38;2.83;;;;;;;;;;5071998;28;20044;-58
2023/10/05 13:24:20;;;;;;;10.32;2.67;;;;;;;;;;5072652;28;20036;-59
2023/10/05 13:26:49;;;;;;;10.57;2.85;;;;;;;;;;5070272;28;20379;-59
2023/10/05 13:29:24;;;;;;;15.45;2.92;;;;;;;;;;5071234;28;20067;-59
2023/10/05 13:31:51;;;;;;;16.55;2.65;;;;;;;;;;5066232;28;20041;-59
2023/10/05 13:34:19;;;;;;;6.10;1.80;;;;;;;;;;5054398;28;20182;-59
2023/10/05 13:36:46;;;;;;;6.50;2.05;;;;;;;;;;5071433;28;20117;-59
2023/10/05 13:39:20;;;;;;;10.70;2.10;;;;;;;;;;5069605;28;20062;-59
2023/10/05 13:41:47;;;;;;;15.90;3.70;;;;;;;;;;5068821;28;20086;-59
2023/10/05 13:44:20;;;;;;;12.30;3.22;;;;;;;;;;5070434;28;20106;-59
2023/10/05 13:46:47;;;;;;;7.53;2.23;;;;;;;;;;5066517;28;20040;-59
2023/10/05 13:49:16;;;;;;;16.27;2.85;;;;;;;;;;5070936;28;20299;-59
2023/10/05 13:51:43;;;;;;;9.07;2.00;;;;;;;;;;5071457;28;20062;-59
2023/10/05 13:54:16;;;;;;;9.43;2.10;;;;;;;;;;5071488;28;20060;-59
2023/10/05 13:56:42;;;;;;;10.80;2.17;;;;;;;;;;5071048;28;20060;-59
2023/10/05 13:59:17;;;;;;;7.88;1.90;;;;;;;;;;5071731;28;20526;-59
2023/10/05 14:01:44;;;;;;;13.02;2.15;;;;;;;;;;5069505;28;20044;-59
2023/10/05 14:04:15;;;;;;;9.57;2.40;;;;;;;;;;5069716;28;20397;-59
2023/10/05 14:06:43;;;;;;;10.02;2.63;;;;;;;;;;5068392;28;20076;-59
2023/10/05 14:09:10;;;;;;;11.23;2.20;;;;;;;;;;5072337;28;20151;-59
2023/10/05 14:11:38;;;;;;;11.32;2.30;;;;;;;;;;5069198;28;20072;-59
2023/10/05 14:14:05;;;;;;;8.57;2.22;;;;;;;;;;5072213;28;20080;-59
2023/10/05 14:16:52;;;;;;;13.15;2.33;;;;;;;;;;5069746;28;20047;-59
2023/10/05 14:19:22;;;;;;;15.68;4.18;;;;;;;;;;5068375;28;20419;-58
2023/10/05 14:21:50;;;;;;;11.30;2.58;;;;;;;;;;5071304;28;20044;-59
2023/10/05 14:24:18;;;;;;;9.45;1.98;;;;;;;;;;5071152;28;20052;-59
2023/10/05 14:26:48;;;;;;;8.63;2.38;;;;;;;;;;5069117;28;20043;-60
2023/10/05 14:29:17;;;;;;;12.43;2.13;;;;;;;;;;5065780;28;20520;-59
2023/10/05 14:31:44;;;;;;;8.57;2.25;;;;;;;;;;5065829;28;20044;-59
2023/10/05 14:34:13;;;;;;;12.02;2.65;;;;;;;;;;5070058;28;20465;-58
2023/10/05 14:36:39;;;;;;;12.45;2.67;;;;;;;;;;5070669;28;20063;-59
2023/10/05 14:39:20;;;;;;;9.32;2.25;;;;;;;;;;5071856;28;20052;-59
2023/10/05 14:41:48;;;;;;;9.73;2.60;;;;;;;;;;5068057;28;20536;-59
2023/10/05 14:44:15;;;;;;;11.98;1.98;;;;;;;;;;5069838;28;20052;-59
2023/10/05 14:46:42;;;;;;;10.80;2.28;;;;;;;;;;5070161;28;20131;-59
2023/10/05 14:49:08;;;;;;;13.88;2.75;;;;;;;;;;5069740;28;20429;-59
2023/10/05 14:51:34;;;;;;;12.10;2.70;;;;;;;;;;5068660;28;20120;-65
2023/10/05 14:54:00;;;;;;;10.02;2.45;;;;;;;;;;5070085;28;20089;-60
2023/10/05 14:56:27;;;;;;;21.80;5.35;;;;;;;;;;5071232;28;20044;-59
2023/10/05 14:58:53;;;;;;;11.48;3.28;;;;;;;;;;5065439;28;20429;-59
2023/10/05 15:01:19;;;;;;;17.30;2.72;;;;;;;;;;5064263;28;20093;-58
2023/10/05 15:03:46;;;;;;;12.20;2.53;;;;;;;;;;5074209;28;20438;-66
2023/10/05 15:06:14;;;;;;;14.50;2.78;;;;;;;;;;5069489;28;20120;-58
2023/10/05 15:08:40;;;;;;;15.43;4.50;;;;;;;;;;5066240;28;20468;-58
2023/10/05 15:11:09;;;;;;;13.93;3.63;;;;;;;;;;5066652;28;20049;-58
2023/10/05 15:13:36;;;;;;;12.60;2.80;;;;;;;;;;5068088;28;20060;-58